sensor_id;sensor_type;location;lat;lon;timestamp;P1;durP1;ratioP1;P2;durP2;ratioP2
60018;SDS011;45870;42.528;26.740;2022-08-01T00:00:33;64.72;;;42.63;;
60018;SDS011;45870;42.528;26.740;2022-08-01T00:02:59;64.97;;;43.75;;
60018;SDS011;45870;42.528;26.740;2022-08-01T00:05:25;70.38;;;45.72;;
60018;SDS011;45870;42.528;26.740;2022-08-01T00:07:51;60.75;;;43.97;;
60018;SDS011;45870;42.528;26.740;2022-08-01T00:10:17;50.63;;;36.25;;
60018;SDS011;45870;42.528;26.740;2022-08-01T00:12:44;89.20;;;37.08;;
60018;SDS011;45870;42.528;26.740;2022-08-01T00:15:11;53.75;;;38.28;;
60018;SDS011;45870;42.528;26.740;2022-08-01T00:17:39;48.03;;;37.20;;
60018;SDS011;45870;42.528;26.740;2022-08-01T00:20:05;53.78;;;38.42;;
60018;SDS011;45870;42.528;26.740;2022-08-01T00:22:33;56.20;;;39.80;;
60018;SDS011;45870;42.528;26.740;2022-08-01T00:24:59;56.00;;;36.03;;
60018;SDS011;45870;42.528;26.740;2022-08-01T00:27:25;47.35;;;35.15;;
60018;SDS011;45870;42.528;26.740;2022-08-01T00:29:51;52.05;;;38.60;;
60018;SDS011;45870;42.528;26.740;2022-08-01T00:32:17;60.03;;;37.72;;
60018;SDS011;45870;42.528;26.740;2022-08-01T00:34:43;79.93;;;41.80;;
60018;SDS011;45870;42.528;26.740;2022-08-01T00:37:09;52.30;;;39.60;;
60018;SDS011;45870;42.528;26.740;2022-08-01T00:39:34;101.93;;;39.88;;
60018;SDS011;45870;42.528;26.740;2022-08-01T00:42:05;51.58;;;36.60;;
60018;SDS011;45870;42.528;26.740;2022-08-01T00:46:58;76.80;;;42.03;;
60018;SDS011;45870;42.528;26.740;2022-08-01T00:49:24;77.97;;;48.08;;
60018;SDS011;45870;42.528;26.740;2022-08-01T00:51:50;86.30;;;49.38;;
60018;SDS011;45870;42.528;26.740;2022-08-01T00:54:16;96.47;;;53.67;;
60018;SDS011;45870;42.528;26.740;2022-08-01T00:56:41;107.28;;;58.83;;
60018;SDS011;45870;42.528;26.740;2022-08-01T00:59:08;110.50;;;60.95;;
60018;SDS011;45870;42.528;26.740;2022-08-01T01:01:34;121.47;;;67.15;;
60018;SDS011;45870;42.528;26.740;2022-08-01T01:04:00;131.20;;;68.45;;
60018;SDS011;45870;42.528;26.740;2022-08-01T01:06:40;158.43;;;76.57;;
60018;SDS011;45870;42.528;26.740;2022-08-01T01:15:02;119.55;;;65.35;;
60018;SDS011;45870;42.528;26.740;2022-08-01T01:17:44;99.45;;;55.45;;
60018;SDS011;45870;42.528;26.740;2022-08-01T01:20:13;79.38;;;51.38;;
60018;SDS011;45870;42.528;26.740;2022-08-01T01:28:25;74.45;;;44.22;;
60018;SDS011;45870;42.528;26.740;2022-08-01T01:30:58;57.38;;;39.55;;
60018;SDS011;45870;42.528;26.740;2022-08-01T01:33:26;59.33;;;40.47;;
60018;SDS011;45870;42.528;26.740;2022-08-01T01:36:00;63.65;;;43.67;;
60018;SDS011;45870;42.528;26.740;2022-08-01T01:38:35;77.07;;;47.03;;
60018;SDS011;45870;42.528;26.740;2022-08-01T01:41:03;87.78;;;54.83;;
60018;SDS011;45870;42.528;26.740;2022-08-01T01:43:30;109.45;;;63.20;;
60018;SDS011;45870;42.528;26.740;2022-08-01T01:45:57;214.57;;;119.35;;
60018;SDS011;45870;42.528;26.740;2022-08-01T01:48:25;312.67;;;164.95;;
60018;SDS011;45870;42.528;26.740;2022-08-01T01:50:52;288.52;;;149.13;;
60018;SDS011;45870;42.528;26.740;2022-08-01T01:53:21;213.23;;;122.28;;
60018;SDS011;45870;42.528;26.740;2022-08-01T01:55:52;214.10;;;120.15;;
60018;SDS011;45870;42.528;26.740;2022-08-01T01:58:21;220.55;;;122.10;;
60018;SDS011;45870;42.528;26.740;2022-08-01T02:00:48;243.35;;;129.80;;
60018;SDS011;45870;42.528;26.740;2022-08-01T02:03:16;242.82;;;131.00;;
60018;SDS011;45870;42.528;26.740;2022-08-01T02:05:43;197.48;;;110.10;;
60018;SDS011;45870;42.528;26.740;2022-08-01T02:08:10;157.05;;;88.20;;
60018;SDS011;45870;42.528;26.740;2022-08-01T02:10:39;106.93;;;65.07;;
60018;SDS011;45870;42.528;26.740;2022-08-01T02:13:08;89.10;;;56.15;;
60018;SDS011;45870;42.528;26.740;2022-08-01T02:15:36;93.70;;;56.58;;
60018;SDS011;45870;42.528;26.740;2022-08-01T02:18:05;83.45;;;51.80;;
60018;SDS011;45870;42.528;26.740;2022-08-01T02:20:32;61.17;;;41.22;;
60018;SDS011;45870;42.528;26.740;2022-08-01T02:23:10;61.92;;;43.83;;
60018;SDS011;45870;42.528;26.740;2022-08-01T02:25:50;69.57;;;42.03;;
60018;SDS011;45870;42.528;26.740;2022-08-01T02:28:23;71.32;;;45.80;;
60018;SDS011;45870;42.528;26.740;2022-08-01T02:30:54;58.15;;;40.40;;
60018;SDS011;45870;42.528;26.740;2022-08-01T02:33:27;41.47;;;29.88;;
60018;SDS011;45870;42.528;26.740;2022-08-01T02:36:14;81.20;;;50.17;;
60018;SDS011;45870;42.528;26.740;2022-08-01T02:38:44;76.05;;;51.42;;
60018;SDS011;45870;42.528;26.740;2022-08-01T02:41:12;44.75;;;30.23;;
60018;SDS011;45870;42.528;26.740;2022-08-01T02:43:47;42.42;;;28.48;;
60018;SDS011;45870;42.528;26.740;2022-08-01T02:46:21;32.45;;;23.98;;
60018;SDS011;45870;42.528;26.740;2022-08-01T02:48:51;31.20;;;23.77;;
60018;SDS011;45870;42.528;26.740;2022-08-01T02:51:18;30.83;;;22.77;;
60018;SDS011;45870;42.528;26.740;2022-08-01T02:53:48;30.17;;;23.65;;
60018;SDS011;45870;42.528;26.740;2022-08-01T02:56:17;30.55;;;24.45;;
60018;SDS011;45870;42.528;26.740;2022-08-01T02:58:45;37.88;;;26.38;;
60018;SDS011;45870;42.528;26.740;2022-08-01T03:01:13;37.20;;;24.85;;
60018;SDS011;45870;42.528;26.740;2022-08-01T03:03:40;33.83;;;25.00;;
60018;SDS011;45870;42.528;26.740;2022-08-01T03:06:06;34.50;;;22.27;;
60018;SDS011;45870;42.528;26.740;2022-08-01T03:08:34;27.70;;;20.75;;
60018;SDS011;45870;42.528;26.740;2022-08-01T03:11:02;27.65;;;19.85;;
60018;SDS011;45870;42.528;26.740;2022-08-01T03:13:29;28.98;;;21.08;;
60018;SDS011;45870;42.528;26.740;2022-08-01T03:15:58;30.83;;;20.67;;
60018;SDS011;45870;42.528;26.740;2022-08-01T03:18:26;28.80;;;20.67;;
60018;SDS011;45870;42.528;26.740;2022-08-01T03:20:53;30.80;;;21.65;;
60018;SDS011;45870;42.528;26.740;2022-08-01T03:23:21;28.77;;;20.45;;
60018;SDS011;45870;42.528;26.740;2022-08-01T03:25:49;28.73;;;19.45;;
60018;SDS011;45870;42.528;26.740;2022-08-01T03:28:16;24.60;;;17.92;;
60018;SDS011;45870;42.528;26.740;2022-08-01T03:30:45;24.25;;;16.67;;
60018;SDS011;45870;42.528;26.740;2022-08-01T03:33:14;20.60;;;15.50;;
60018;SDS011;45870;42.528;26.740;2022-08-01T03:35:43;15.90;;;13.95;;
60018;SDS011;45870;42.528;26.740;2022-08-01T03:38:13;16.92;;;12.55;;
60018;SDS011;45870;42.528;26.740;2022-08-01T03:40:45;14.57;;;11.60;;
60018;SDS011;45870;42.528;26.740;2022-08-01T03:43:19;16.52;;;11.13;;
60018;SDS011;45870;42.528;26.740;2022-08-01T03:45:50;15.40;;;10.55;;
60018;SDS011;45870;42.528;26.740;2022-08-01T03:48:18;12.90;;;9.23;;
60018;SDS011;45870;42.528;26.740;2022-08-01T03:50:48;11.00;;;8.68;;
60018;SDS011;45870;42.528;26.740;2022-08-01T03:53:18;11.48;;;8.68;;
60018;SDS011;45870;42.528;26.740;2022-08-01T03:55:47;13.70;;;8.47;;
60018;SDS011;45870;42.528;26.740;2022-08-01T03:58:14;10.63;;;7.88;;
60018;SDS011;45870;42.528;26.740;2022-08-01T04:00:41;16.88;;;8.98;;
60018;SDS011;45870;42.528;26.740;2022-08-01T04:03:08;12.23;;;7.90;;
60018;SDS011;45870;42.528;26.740;2022-08-01T04:05:35;13.07;;;7.70;;
60018;SDS011;45870;42.528;26.740;2022-08-01T04:08:01;9.85;;;7.25;;
60018;SDS011;45870;42.528;26.740;2022-08-01T04:10:28;12.30;;;7.35;;
60018;SDS011;45870;42.528;26.740;2022-08-01T04:12:54;7.32;;;6.47;;
60018;SDS011;45870;42.528;26.740;2022-08-01T04:15:20;12.98;;;7.03;;
60018;SDS011;45870;42.528;26.740;2022-08-01T04:17:46;10.95;;;6.78;;
60018;SDS011;45870;42.528;26.740;2022-08-01T04:20:13;7.53;;;6.32;;
60018;SDS011;45870;42.528;26.740;2022-08-01T04:22:41;9.18;;;6.30;;
60018;SDS011;45870;42.528;26.740;2022-08-01T04:25:09;11.80;;;5.80;;
60018;SDS011;45870;42.528;26.740;2022-08-01T04:27:40;7.95;;;5.68;;
60018;SDS011;45870;42.528;26.740;2022-08-01T04:30:10;9.07;;;5.93;;
60018;SDS011;45870;42.528;26.740;2022-08-01T04:32:39;8.73;;;5.45;;
60018;SDS011;45870;42.528;26.740;2022-08-01T04:35:09;6.47;;;5.88;;
60018;SDS011;45870;42.528;26.740;2022-08-01T04:37:41;8.07;;;5.25;;
60018;SDS011;45870;42.528;26.740;2022-08-01T04:40:09;9.38;;;5.15;;
60018;SDS011;45870;42.528;26.740;2022-08-01T04:42:37;9.60;;;5.50;;
60018;SDS011;45870;42.528;26.740;2022-08-01T04:45:03;7.28;;;4.95;;
60018;SDS011;45870;42.528;26.740;2022-08-01T04:47:30;5.20;;;4.70;;
60018;SDS011;45870;42.528;26.740;2022-08-01T04:49:56;5.20;;;4.70;;
60018;SDS011;45870;42.528;26.740;2022-08-01T04:52:22;8.63;;;4.40;;
60018;SDS011;45870;42.528;26.740;2022-08-01T04:54:48;6.43;;;4.78;;
60018;SDS011;45870;42.528;26.740;2022-08-01T04:57:14;6.22;;;4.07;;
60018;SDS011;45870;42.528;26.740;2022-08-01T04:59:41;4.18;;;3.70;;
60018;SDS011;45870;42.528;26.740;2022-08-01T05:02:16;9.35;;;4.07;;
60018;SDS011;45870;42.528;26.740;2022-08-01T05:04:43;4.20;;;3.42;;
60018;SDS011;45870;42.528;26.740;2022-08-01T05:07:10;5.53;;;3.67;;
60018;SDS011;45870;42.528;26.740;2022-08-01T05:09:36;5.95;;;3.40;;
60018;SDS011;45870;42.528;26.740;2022-08-01T05:12:03;5.00;;;3.25;;
60018;SDS011;45870;42.528;26.740;2022-08-01T05:14:31;5.88;;;2.97;;
60018;SDS011;45870;42.528;26.740;2022-08-01T05:16:59;8.13;;;3.28;;
60018;SDS011;45870;42.528;26.740;2022-08-01T05:19:28;3.13;;;2.83;;
60018;SDS011;45870;42.528;26.740;2022-08-01T05:21:58;4.93;;;2.92;;
60018;SDS011;45870;42.528;26.740;2022-08-01T05:24:26;4.65;;;3.00;;
60018;SDS011;45870;42.528;26.740;2022-08-01T05:26:55;3.92;;;2.95;;
60018;SDS011;45870;42.528;26.740;2022-08-01T05:29:22;5.18;;;2.88;;
60018;SDS011;45870;42.528;26.740;2022-08-01T05:31:49;4.78;;;2.70;;
60018;SDS011;45870;42.528;26.740;2022-08-01T05:34:15;3.13;;;2.58;;
60018;SDS011;45870;42.528;26.740;2022-08-01T05:36:41;3.00;;;2.70;;
60018;SDS011;45870;42.528;26.740;2022-08-01T05:39:07;3.20;;;2.30;;
60018;SDS011;45870;42.528;26.740;2022-08-01T05:41:33;3.60;;;2.55;;
60018;SDS011;45870;42.528;26.740;2022-08-01T05:43:59;3.63;;;2.53;;
60018;SDS011;45870;42.528;26.740;2022-08-01T05:46:25;4.10;;;2.20;;
60018;SDS011;45870;42.528;26.740;2022-08-01T05:48:51;2.25;;;1.88;;
60018;SDS011;45870;42.528;26.740;2022-08-01T05:51:16;5.20;;;1.45;;
60018;SDS011;45870;42.528;26.740;2022-08-01T05:53:44;4.63;;;1.42;;
60018;SDS011;45870;42.528;26.740;2022-08-01T05:56:10;3.47;;;1.50;;
60018;SDS011;45870;42.528;26.740;2022-08-01T05:58:36;2.75;;;1.30;;
60018;SDS011;45870;42.528;26.740;2022-08-01T06:01:01;6.30;;;1.30;;
60018;SDS011;45870;42.528;26.740;2022-08-01T06:03:27;2.67;;;1.23;;
60018;SDS011;45870;42.528;26.740;2022-08-01T06:05:56;6.55;;;1.70;;
60018;SDS011;45870;42.528;26.740;2022-08-01T06:08:22;7.88;;;1.50;;
60018;SDS011;45870;42.528;26.740;2022-08-01T06:10:48;4.03;;;1.60;;
60018;SDS011;45870;42.528;26.740;2022-08-01T06:13:14;9.23;;;1.58;;
60018;SDS011;45870;42.528;26.740;2022-08-01T06:15:40;5.70;;;1.55;;
60018;SDS011;45870;42.528;26.740;2022-08-01T06:18:05;2.33;;;1.33;;
60018;SDS011;45870;42.528;26.740;2022-08-01T06:20:31;1.83;;;1.15;;
60018;SDS011;45870;42.528;26.740;2022-08-01T06:22:57;2.15;;;1.38;;
60018;SDS011;45870;42.528;26.740;2022-08-01T06:25:23;5.22;;;1.40;;
60018;SDS011;45870;42.528;26.740;2022-08-01T06:27:49;2.20;;;1.52;;
60018;SDS011;45870;42.528;26.740;2022-08-01T06:30:14;3.10;;;1.35;;
60018;SDS011;45870;42.528;26.740;2022-08-01T06:32:40;5.45;;;1.48;;
60018;SDS011;45870;42.528;26.740;2022-08-01T06:35:06;3.15;;;1.40;;
60018;SDS011;45870;42.528;26.740;2022-08-01T06:37:32;3.78;;;1.40;;
60018;SDS011;45870;42.528;26.740;2022-08-01T06:40:03;6.68;;;1.70;;
60018;SDS011;45870;42.528;26.740;2022-08-01T06:42:30;6.80;;;1.50;;
60018;SDS011;45870;42.528;26.740;2022-08-01T06:45:06;2.42;;;1.42;;
60018;SDS011;45870;42.528;26.740;2022-08-01T06:47:34;3.90;;;1.55;;
60018;SDS011;45870;42.528;26.740;2022-08-01T06:50:01;2.92;;;1.20;;
60018;SDS011;45870;42.528;26.740;2022-08-01T06:52:27;4.03;;;1.42;;
60018;SDS011;45870;42.528;26.740;2022-08-01T06:54:53;2.55;;;1.20;;
60018;SDS011;45870;42.528;26.740;2022-08-01T06:57:19;3.10;;;1.60;;
60018;SDS011;45870;42.528;26.740;2022-08-01T06:59:44;3.45;;;1.30;;
60018;SDS011;45870;42.528;26.740;2022-08-01T07:02:10;3.08;;;1.48;;
60018;SDS011;45870;42.528;26.740;2022-08-01T07:04:36;8.25;;;1.60;;
60018;SDS011;45870;42.528;26.740;2022-08-01T07:07:02;3.50;;;1.35;;
60018;SDS011;45870;42.528;26.740;2022-08-01T07:09:28;3.42;;;1.40;;
60018;SDS011;45870;42.528;26.740;2022-08-01T07:11:54;2.67;;;1.50;;
60018;SDS011;45870;42.528;26.740;2022-08-01T07:14:21;2.50;;;1.30;;
60018;SDS011;45870;42.528;26.740;2022-08-01T07:16:47;3.90;;;1.40;;
60018;SDS011;45870;42.528;26.740;2022-08-01T07:19:13;2.80;;;1.40;;
60018;SDS011;45870;42.528;26.740;2022-08-01T07:21:39;3.70;;;1.60;;
60018;SDS011;45870;42.528;26.740;2022-08-01T07:24:06;4.63;;;1.30;;
60018;SDS011;45870;42.528;26.740;2022-08-01T07:26:33;5.95;;;1.60;;
60018;SDS011;45870;42.528;26.740;2022-08-01T07:28:59;5.65;;;1.33;;
60018;SDS011;45870;42.528;26.740;2022-08-01T07:31:25;2.72;;;1.40;;
60018;SDS011;45870;42.528;26.740;2022-08-01T07:33:51;2.92;;;1.42;;
60018;SDS011;45870;42.528;26.740;2022-08-01T07:36:17;4.40;;;1.20;;
60018;SDS011;45870;42.528;26.740;2022-08-01T07:38:44;4.20;;;1.65;;
60018;SDS011;45870;42.528;26.740;2022-08-01T07:41:10;4.35;;;1.70;;
60018;SDS011;45870;42.528;26.740;2022-08-01T07:43:36;4.10;;;1.30;;
60018;SDS011;45870;42.528;26.740;2022-08-01T07:46:02;2.80;;;1.27;;
60018;SDS011;45870;42.528;26.740;2022-08-01T07:48:29;4.35;;;1.45;;
60018;SDS011;45870;42.528;26.740;2022-08-01T07:50:57;2.30;;;1.27;;
60018;SDS011;45870;42.528;26.740;2022-08-01T07:53:27;2.95;;;1.67;;
60018;SDS011;45870;42.528;26.740;2022-08-01T07:55:54;3.05;;;1.40;;
60018;SDS011;45870;42.528;26.740;2022-08-01T07:58:20;3.15;;;1.40;;
60018;SDS011;45870;42.528;26.740;2022-08-01T08:00:46;6.43;;;1.50;;
60018;SDS011;45870;42.528;26.740;2022-08-01T08:03:13;5.72;;;1.30;;
60018;SDS011;45870;42.528;26.740;2022-08-01T08:05:40;5.22;;;1.52;;
60018;SDS011;45870;42.528;26.740;2022-08-01T08:08:07;2.28;;;1.30;;
60018;SDS011;45870;42.528;26.740;2022-08-01T08:10:35;2.88;;;1.35;;
60018;SDS011;45870;42.528;26.740;2022-08-01T08:13:02;4.78;;;1.33;;
60018;SDS011;45870;42.528;26.740;2022-08-01T08:15:29;3.20;;;1.20;;
60018;SDS011;45870;42.528;26.740;2022-08-01T08:17:56;2.22;;;1.27;;
60018;SDS011;45870;42.528;26.740;2022-08-01T08:20:24;3.42;;;1.40;;
60018;SDS011;45870;42.528;26.740;2022-08-01T08:22:54;2.83;;;1.02;;
60018;SDS011;45870;42.528;26.740;2022-08-01T08:25:22;2.25;;;1.30;;
60018;SDS011;45870;42.528;26.740;2022-08-01T08:27:48;4.10;;;1.40;;
60018;SDS011;45870;42.528;26.740;2022-08-01T08:30:14;5.57;;;1.30;;
60018;SDS011;45870;42.528;26.740;2022-08-01T08:32:40;3.95;;;1.27;;
60018;SDS011;45870;42.528;26.740;2022-08-01T08:35:06;3.40;;;1.42;;
60018;SDS011;45870;42.528;26.740;2022-08-01T08:37:33;2.20;;;1.55;;
60018;SDS011;45870;42.528;26.740;2022-08-01T08:39:59;2.15;;;1.40;;
60018;SDS011;45870;42.528;26.740;2022-08-01T08:42:25;4.28;;;1.30;;
60018;SDS011;45870;42.528;26.740;2022-08-01T08:44:51;2.13;;;1.15;;
60018;SDS011;45870;42.528;26.740;2022-08-01T08:47:19;2.45;;;1.15;;
60018;SDS011;45870;42.528;26.740;2022-08-01T08:49:48;2.22;;;1.13;;
60018;SDS011;45870;42.528;26.740;2022-08-01T08:52:15;4.30;;;1.33;;
60018;SDS011;45870;42.528;26.740;2022-08-01T08:54:44;5.10;;;1.30;;
60018;SDS011;45870;42.528;26.740;2022-08-01T08:57:13;4.10;;;1.30;;
60018;SDS011;45870;42.528;26.740;2022-08-01T08:59:40;2.92;;;1.20;;
60018;SDS011;45870;42.528;26.740;2022-08-01T09:02:07;7.75;;;1.52;;
60018;SDS011;45870;42.528;26.740;2022-08-01T09:04:35;2.70;;;1.25;;
60018;SDS011;45870;42.528;26.740;2022-08-01T09:07:03;3.17;;;1.30;;
60018;SDS011;45870;42.528;26.740;2022-08-01T09:09:30;7.28;;;1.40;;
60018;SDS011;45870;42.528;26.740;2022-08-01T09:11:59;2.17;;;1.30;;
60018;SDS011;45870;42.528;26.740;2022-08-01T09:14:25;2.75;;;1.02;;
60018;SDS011;45870;42.528;26.740;2022-08-01T09:17:07;1.45;;;1.10;;
60018;SDS011;45870;42.528;26.740;2022-08-01T09:19:40;3.72;;;1.50;;
60018;SDS011;45870;42.528;26.740;2022-08-01T09:22:12;1.35;;;1.05;;
60018;SDS011;45870;42.528;26.740;2022-08-01T09:24:56;2.53;;;1.10;;
60018;SDS011;45870;42.528;26.740;2022-08-01T09:27:23;4.50;;;1.23;;
60018;SDS011;45870;42.528;26.740;2022-08-01T09:29:51;4.20;;;1.20;;
60018;SDS011;45870;42.528;26.740;2022-08-01T09:32:18;1.73;;;1.08;;
60018;SDS011;45870;42.528;26.740;2022-08-01T09:34:45;4.05;;;1.13;;
60018;SDS011;45870;42.528;26.740;2022-08-01T09:37:13;2.08;;;1.30;;
60018;SDS011;45870;42.528;26.740;2022-08-01T09:39:42;3.40;;;1.60;;
60018;SDS011;45870;42.528;26.740;2022-08-01T09:42:23;1.33;;;1.00;;
60018;SDS011;45870;42.528;26.740;2022-08-01T09:44:51;4.13;;;1.02;;
60018;SDS011;45870;42.528;26.740;2022-08-01T09:47:18;2.28;;;1.00;;
60018;SDS011;45870;42.528;26.740;2022-08-01T09:49:53;3.75;;;1.00;;
60018;SDS011;45870;42.528;26.740;2022-08-01T09:52:23;3.75;;;1.05;;
60018;SDS011;45870;42.528;26.740;2022-08-01T09:54:52;3.63;;;0.90;;
60018;SDS011;45870;42.528;26.740;2022-08-01T09:57:19;2.05;;;1.02;;
60018;SDS011;45870;42.528;26.740;2022-08-01T09:59:47;3.75;;;1.40;;
60018;SDS011;45870;42.528;26.740;2022-08-01T10:05:03;1.60;;;1.00;;
60018;SDS011;45870;42.528;26.740;2022-08-01T10:07:31;2.55;;;1.17;;
60018;SDS011;45870;42.528;26.740;2022-08-01T10:10:10;4.40;;;1.45;;
60018;SDS011;45870;42.528;26.740;2022-08-01T10:12:37;3.95;;;1.17;;
60018;SDS011;45870;42.528;26.740;2022-08-01T10:15:05;1.55;;;0.93;;
60018;SDS011;45870;42.528;26.740;2022-08-01T10:17:32;1.63;;;0.90;;
60018;SDS011;45870;42.528;26.740;2022-08-01T10:20:00;2.38;;;1.20;;
60018;SDS011;45870;42.528;26.740;2022-08-01T10:22:27;4.30;;;1.02;;
60018;SDS011;45870;42.528;26.740;2022-08-01T10:24:56;2.97;;;1.00;;
60018;SDS011;45870;42.528;26.740;2022-08-01T10:27:27;1.27;;;0.90;;
60018;SDS011;45870;42.528;26.740;2022-08-01T10:29:57;2.25;;;0.98;;
60018;SDS011;45870;42.528;26.740;2022-08-01T10:32:29;2.00;;;0.90;;
60018;SDS011;45870;42.528;26.740;2022-08-01T10:34:55;1.45;;;0.80;;
60018;SDS011;45870;42.528;26.740;2022-08-01T10:37:22;2.05;;;1.00;;
60018;SDS011;45870;42.528;26.740;2022-08-01T10:39:49;1.17;;;0.90;;
60018;SDS011;45870;42.528;26.740;2022-08-01T10:42:16;2.38;;;1.20;;
60018;SDS011;45870;42.528;26.740;2022-08-01T10:44:43;2.10;;;1.20;;
60018;SDS011;45870;42.528;26.740;2022-08-01T10:47:13;1.38;;;0.80;;
60018;SDS011;45870;42.528;26.740;2022-08-01T10:49:43;0.82;;;0.82;;
60018;SDS011;45870;42.528;26.740;2022-08-01T10:52:16;2.20;;;0.93;;
60018;SDS011;45870;42.528;26.740;2022-08-01T10:54:42;1.48;;;0.90;;
60018;SDS011;45870;42.528;26.740;2022-08-01T10:57:08;3.30;;;1.02;;
60018;SDS011;45870;42.528;26.740;2022-08-01T10:59:35;2.78;;;1.10;;
60018;SDS011;45870;42.528;26.740;2022-08-01T11:02:19;2.72;;;1.63;;
60018;SDS011;45870;42.528;26.740;2022-08-01T11:04:57;3.30;;;1.20;;
60018;SDS011;45870;42.528;26.740;2022-08-01T11:10:19;2.85;;;1.20;;
60018;SDS011;45870;42.528;26.740;2022-08-01T11:12:51;2.63;;;1.23;;
60018;SDS011;45870;42.528;26.740;2022-08-01T11:15:18;3.30;;;1.10;;
60018;SDS011;45870;42.528;26.740;2022-08-01T11:17:53;4.78;;;1.08;;
60018;SDS011;45870;42.528;26.740;2022-08-01T11:23:14;2.13;;;0.95;;
60018;SDS011;45870;42.528;26.740;2022-08-01T11:30:43;3.50;;;1.30;;
60018;SDS011;45870;42.528;26.740;2022-08-01T11:33:13;3.70;;;1.20;;
60018;SDS011;45870;42.528;26.740;2022-08-01T11:38:38;2.88;;;1.42;;
60018;SDS011;45870;42.528;26.740;2022-08-01T11:41:13;2.83;;;0.93;;
60018;SDS011;45870;42.528;26.740;2022-08-01T11:57:04;2.33;;;1.40;;
60018;SDS011;45870;42.528;26.740;2022-08-01T11:59:38;5.10;;;1.30;;
60018;SDS011;45870;42.528;26.740;2022-08-01T12:02:16;2.42;;;1.10;;
60018;SDS011;45870;42.528;26.740;2022-08-01T12:04:47;2.83;;;1.17;;
60018;SDS011;45870;42.528;26.740;2022-08-01T12:07:15;2.38;;;1.13;;
60018;SDS011;45870;42.528;26.740;2022-08-01T12:09:43;3.75;;;1.20;;
60018;SDS011;45870;42.528;26.740;2022-08-01T12:12:09;4.65;;;1.00;;
60018;SDS011;45870;42.528;26.740;2022-08-01T12:14:35;1.73;;;1.20;;
60018;SDS011;45870;42.528;26.740;2022-08-01T12:17:01;2.20;;;1.00;;
60018;SDS011;45870;42.528;26.740;2022-08-01T12:19:27;2.70;;;1.00;;
60018;SDS011;45870;42.528;26.740;2022-08-01T12:22:06;2.55;;;0.73;;
60018;SDS011;45870;42.528;26.740;2022-08-01T12:24:39;2.35;;;0.90;;
60018;SDS011;45870;42.528;26.740;2022-08-01T12:27:08;2.42;;;1.00;;
60018;SDS011;45870;42.528;26.740;2022-08-01T12:29:36;1.98;;;0.90;;
60018;SDS011;45870;42.528;26.740;2022-08-01T12:32:19;1.75;;;0.82;;
60018;SDS011;45870;42.528;26.740;2022-08-01T12:34:51;3.17;;;1.00;;
60018;SDS011;45870;42.528;26.740;2022-08-01T12:37:19;1.38;;;0.85;;
60018;SDS011;45870;42.528;26.740;2022-08-01T12:39:45;1.25;;;0.90;;
60018;SDS011;45870;42.528;26.740;2022-08-01T12:42:12;1.30;;;0.90;;
60018;SDS011;45870;42.528;26.740;2022-08-01T12:44:39;4.72;;;1.10;;
60018;SDS011;45870;42.528;26.740;2022-08-01T12:47:07;1.17;;;0.77;;
60018;SDS011;45870;42.528;26.740;2022-08-01T12:49:37;1.17;;;0.85;;
60018;SDS011;45870;42.528;26.740;2022-08-01T12:52:05;1.05;;;0.80;;
60018;SDS011;45870;42.528;26.740;2022-08-01T12:54:59;1.60;;;0.85;;
60018;SDS011;45870;42.528;26.740;2022-08-01T12:57:29;1.00;;;0.70;;
60018;SDS011;45870;42.528;26.740;2022-08-01T13:00:06;0.90;;;0.65;;
60018;SDS011;45870;42.528;26.740;2022-08-01T13:02:40;1.70;;;0.70;;
60018;SDS011;45870;42.528;26.740;2022-08-01T13:05:07;4.43;;;0.90;;
60018;SDS011;45870;42.528;26.740;2022-08-01T13:07:35;1.88;;;0.65;;
60018;SDS011;45870;42.528;26.740;2022-08-01T13:10:02;1.13;;;0.60;;
60018;SDS011;45870;42.528;26.740;2022-08-01T13:12:29;0.43;;;0.43;;
60018;SDS011;45870;42.528;26.740;2022-08-01T13:14:55;3.90;;;0.70;;
60018;SDS011;45870;42.528;26.740;2022-08-01T13:17:34;1.45;;;0.60;;
60018;SDS011;45870;42.528;26.740;2022-08-01T13:20:05;1.15;;;0.60;;
60018;SDS011;45870;42.528;26.740;2022-08-01T13:22:34;4.10;;;0.73;;
60018;SDS011;45870;42.528;26.740;2022-08-01T13:25:11;2.25;;;0.60;;
60018;SDS011;45870;42.528;26.740;2022-08-01T13:27:41;3.28;;;0.70;;
60018;SDS011;45870;42.528;26.740;2022-08-01T13:30:12;2.20;;;0.77;;
60018;SDS011;45870;42.528;26.740;2022-08-01T13:32:40;1.58;;;0.65;;
60018;SDS011;45870;42.528;26.740;2022-08-01T13:35:09;0.65;;;0.65;;
60018;SDS011;45870;42.528;26.740;2022-08-01T13:37:42;0.90;;;0.60;;
60018;SDS011;45870;42.528;26.740;2022-08-01T13:40:09;2.00;;;0.63;;
60018;SDS011;45870;42.528;26.740;2022-08-01T13:42:36;2.78;;;0.60;;
60018;SDS011;45870;42.528;26.740;2022-08-01T13:45:05;3.17;;;0.70;;
60018;SDS011;45870;42.528;26.740;2022-08-01T13:47:34;0.88;;;0.80;;
60018;SDS011;45870;42.528;26.740;2022-08-01T13:50:00;1.00;;;0.70;;
60018;SDS011;45870;42.528;26.740;2022-08-01T13:52:27;1.67;;;0.85;;
60018;SDS011;45870;42.528;26.740;2022-08-01T13:54:53;1.92;;;0.50;;
60018;SDS011;45870;42.528;26.740;2022-08-01T13:57:19;0.77;;;0.60;;
60018;SDS011;45870;42.528;26.740;2022-08-01T13:59:45;1.00;;;0.60;;
60018;SDS011;45870;42.528;26.740;2022-08-01T14:02:11;1.17;;;0.73;;
60018;SDS011;45870;42.528;26.740;2022-08-01T14:04:37;1.23;;;0.60;;
60018;SDS011;45870;42.528;26.740;2022-08-01T14:07:02;0.50;;;0.50;;
60018;SDS011;45870;42.528;26.740;2022-08-01T14:09:29;1.42;;;0.50;;
60018;SDS011;45870;42.528;26.740;2022-08-01T14:11:54;1.67;;;0.68;;
60018;SDS011;45870;42.528;26.740;2022-08-01T14:14:20;0.70;;;0.70;;
60018;SDS011;45870;42.528;26.740;2022-08-01T14:16:46;5.15;;;0.60;;
60018;SDS011;45870;42.528;26.740;2022-08-01T14:19:11;1.05;;;0.52;;
60018;SDS011;45870;42.528;26.740;2022-08-01T14:21:37;0.60;;;0.60;;
60018;SDS011;45870;42.528;26.740;2022-08-01T14:24:03;1.40;;;0.43;;
60018;SDS011;45870;42.528;26.740;2022-08-01T14:26:29;0.50;;;0.35;;
60018;SDS011;45870;42.528;26.740;2022-08-01T14:28:55;1.70;;;1.08;;
60018;SDS011;45870;42.528;26.740;2022-08-01T14:31:20;1.70;;;0.50;;
60018;SDS011;45870;42.528;26.740;2022-08-01T14:33:46;1.50;;;0.50;;
60018;SDS011;45870;42.528;26.740;2022-08-01T14:36:15;0.60;;;0.50;;
60018;SDS011;45870;42.528;26.740;2022-08-01T14:38:40;1.52;;;0.50;;
60018;SDS011;45870;42.528;26.740;2022-08-01T14:41:06;0.63;;;0.43;;
60018;SDS011;45870;42.528;26.740;2022-08-01T14:43:32;1.35;;;0.60;;
60018;SDS011;45870;42.528;26.740;2022-08-01T14:45:58;1.35;;;0.50;;
60018;SDS011;45870;42.528;26.740;2022-08-01T14:48:25;1.13;;;0.50;;
60018;SDS011;45870;42.528;26.740;2022-08-01T14:50:50;0.32;;;0.32;;
60018;SDS011;45870;42.528;26.740;2022-08-01T14:53:16;0.45;;;0.40;;
60018;SDS011;45870;42.528;26.740;2022-08-01T14:55:43;1.33;;;0.40;;
60018;SDS011;45870;42.528;26.740;2022-08-01T14:58:09;2.58;;;0.43;;
60018;SDS011;45870;42.528;26.740;2022-08-01T15:00:35;1.15;;;0.38;;
60018;SDS011;45870;42.528;26.740;2022-08-01T15:03:00;1.33;;;0.40;;
60018;SDS011;45870;42.528;26.740;2022-08-01T15:05:26;3.72;;;0.50;;
60018;SDS011;45870;42.528;26.740;2022-08-01T15:07:54;2.25;;;0.40;;
60018;SDS011;45870;42.528;26.740;2022-08-01T15:10:19;4.80;;;0.80;;
60018;SDS011;45870;42.528;26.740;2022-08-01T15:12:46;1.23;;;0.52;;
60018;SDS011;45870;42.528;26.740;2022-08-01T15:15:12;1.48;;;0.55;;